Time;durP1;ratioP1;P1;durP2;ratioP2;P2;SDS_P1;SDS_P2;PMS_P1;PMS_P2;Temp;Humidity;BMP_temperature;BMP_pressure;BME280_temperature;BME280_humidity;BME280_pressure;Samples;Min_cycle;Max_cycle;Signal;HPM_P1;HPM_P2
2022/03/25 00:00:40;;;;;;;58.00;31.93;;;10.90;1.00;;;;;;5052377;28;20244;-69
2022/03/25 00:03:06;;;;;;;51.80;30.63;;;10.80;1.00;;;;;;5052334;28;20201;-67
2022/03/25 00:05:32;;;;;;;62.77;31.60;;;10.80;1.00;;;;;;5051836;28;20263;-68
2022/03/25 00:07:58;;;;;;;51.87;30.50;;;10.80;1.00;;;;;;5053631;28;20255;-69
2022/03/25 00:10:23;;;;;;;49.80;30.43;;;10.80;1.00;;;;;;5053555;28;20260;-68
2022/03/25 00:12:49;;;;;;;53.73;32.13;;;10.70;1.00;;;;;;5053520;28;20169;-68
2022/03/25 00:15:16;;;;;;;52.10;30.13;;;10.70;1.00;;;;;;5053619;28;20245;-69
2022/03/25 00:17:41;;;;;;;52.47;30.63;;;10.70;1.00;;;;;;5053366;28;20174;-68
2022/03/25 00:20:07;;;;;;;53.03;31.60;;;10.70;1.00;;;;;;5052966;28;20212;-68
2022/03/25 00:22:34;;;;;;;55.20;30.17;;;10.70;1.00;;;;;;5053546;28;20170;-69
2022/03/25 00:25:00;;;;;;;55.80;31.67;;;10.70;1.00;;;;;;5053157;28;20180;-69
2022/03/25 00:27:25;;;;;;;59.63;31.87;;;10.70;1.00;;;;;;5053294;28;20165;-69
2022/03/25 00:29:51;;;;;;;58.77;31.77;;;10.60;1.00;;;;;;5053443;28;20248;-69
2022/03/25 00:32:17;;;;;;;55.77;32.70;;;10.50;1.00;;;;;;5053160;28;20219;-68
2022/03/25 00:34:43;;;;;;;54.27;31.90;;;10.50;1.00;;;;;;5052829;28;20178;-68
2022/03/25 00:37:10;;;;;;;65.07;32.10;;;10.50;48.60;;;;;;5053076;28;20224;-69
2022/03/25 00:39:36;;;;;;;57.27;32.90;;;10.50;51.10;;;;;;5053100;28;20205;-68
2022/03/25 00:42:03;;;;;;;66.10;33.37;;;10.50;46.60;;;;;;5053092;28;20223;-68
2022/03/25 00:44:29;;;;;;;67.83;34.17;;;10.50;65.70;;;;;;5052982;28;20196;-69
2022/03/25 00:46:55;;;;;;;64.40;33.73;;;10.40;99.90;;;;;;5052818;28;20181;-69
2022/03/25 00:49:21;;;;;;;65.53;33.20;;;10.30;99.90;;;;;;5052744;28;20683;-69
2022/03/25 00:51:46;;;;;;;62.43;33.87;;;10.30;99.90;;;;;;5053142;28;20165;-69
2022/03/25 00:54:13;;;;;;;61.13;33.83;;;10.30;99.90;;;;;;5052617;28;20575;-69
2022/03/25 00:56:39;;;;;;;56.00;32.37;;;10.30;99.90;;;;;;5052881;28;20193;-69
2022/03/25 00:59:04;;;;;;;63.70;33.70;;;10.40;99.90;;;;;;5051756;28;20200;-68
2022/03/25 01:01:30;;;;;;;56.17;34.13;;;10.40;99.90;;;;;;5052888;28;20217;-69
2022/03/25 01:03:56;;;;;;;58.40;33.30;;;10.40;99.90;;;;;;5052542;28;20617;-69
2022/03/25 01:06:21;;;;;;;63.17;34.80;;;10.40;99.90;;;;;;5053196;28;20173;-69
2022/03/25 01:08:47;;;;;;;59.60;33.10;;;10.40;99.90;;;;;;5056860;28;20629;-68
2022/03/25 01:11:13;;;;;;;65.67;32.63;;;10.30;99.90;;;;;;5057139;28;20576;-68
2022/03/25 01:13:39;;;;;;;57.93;33.40;;;10.20;1.00;;;;;;5056929;28;20252;-68
2022/03/25 01:16:08;;;;;;;59.23;34.33;;;10.10;99.90;;;;;;5056825;28;20248;-68
2022/03/25 01:18:33;;;;;;;57.80;33.63;;;10.00;1.00;;;;;;5056339;28;20629;-68
2022/03/25 01:20:59;;;;;;;64.20;34.83;;;10.00;87.60;;;;;;5055511;28;20212;-68
2022/03/25 01:23:25;;;;;;;59.40;34.40;;;9.90;1.00;;;;;;5056528;28;20173;-69
2022/03/25 01:25:51;;;;;;;64.37;35.20;;;9.90;10.10;;;;;;5056662;28;20257;-69
2022/03/25 01:28:17;;;;;;;56.43;34.67;;;9.90;1.00;;;;;;5056653;28;20226;-68
2022/03/25 01:30:43;;;;;;;63.17;34.57;;;9.80;1.00;;;;;;5056601;28;20260;-68
2022/03/25 01:33:09;;;;;;;61.80;34.87;;;9.80;20.20;;;;;;5056153;28;20161;-68
2022/03/25 01:35:36;;;;;;;68.50;35.60;;;9.80;1.00;;;;;;5055182;28;20188;-69
2022/03/25 01:38:02;;;;;;;59.37;36.50;;;9.80;1.00;;;;;;5056368;28;20173;-68
2022/03/25 01:40:28;;;;;;;58.30;35.43;;;9.80;1.00;;;;;;5056287;28;20216;-69
2022/03/25 01:42:53;;;;;;;60.93;35.57;;;9.70;99.90;;;;;;5056414;28;20162;-68
2022/03/25 01:45:31;;;;;;;67.13;36.80;;;9.80;1.00;;;;;;5056027;28;20235;-68
2022/03/25 01:47:57;;;;;;;59.50;34.43;;;9.80;99.90;;;;;;5056096;28;20173;-69
2022/03/25 01:50:23;;;;;;;66.17;35.10;;;9.80;1.00;;;;;;5056163;28;20165;-68
2022/03/25 01:52:51;;;;;;;58.03;35.03;;;9.70;99.90;;;;;;5056207;28;20169;-68
2022/03/25 01:55:21;;;;;;;63.37;35.47;;;9.60;99.90;;;;;;5055707;28;20252;-68
2022/03/25 01:57:48;;;;;;;59.97;35.00;;;9.50;1.00;;;;;;5055942;28;20181;-69
2022/03/25 02:00:17;;;;;;;65.03;34.67;;;9.40;1.00;;;;;;5055902;28;20295;-69
2022/03/25 02:02:44;;;;;;;60.53;35.97;;;9.40;1.00;;;;;;5054298;28;20173;-68
2022/03/25 02:05:10;;;;;;;62.27;35.43;;;9.40;1.00;;;;;;5055902;28;20177;-68
2022/03/25 02:07:36;;;;;;;64.97;35.73;;;9.30;1.00;;;;;;5055780;28;20166;-69
2022/03/25 02:10:02;;;;;;;65.33;36.37;;;9.30;1.00;;;;;;5056017;28;20177;-68
2022/03/25 02:12:28;;;;;;;64.97;35.87;;;9.30;99.90;;;;;;5055663;28;20189;-68
2022/03/25 02:14:57;;;;;;;65.10;36.23;;;9.20;99.90;;;;;;5055441;28;20227;-68
2022/03/25 02:17:23;;;;;;;69.60;37.10;;;9.20;1.00;;;;;;5054906;28;20181;-68
2022/03/25 02:19:49;;;;;;;69.30;37.63;;;9.20;1.00;;;;;;5055576;28;20209;-67
2022/03/25 02:22:15;;;;;;;72.00;38.70;;;9.10;85.70;;;;;;5055583;28;20181;-67
2022/03/25 02:24:41;;;;;;;68.53;38.57;;;9.00;99.90;;;;;;5055563;28;20252;-68
2022/03/25 02:27:09;;;;;;;78.37;39.50;;;9.00;99.90;;;;;;5055534;28;20255;-68
2022/03/25 02:29:34;;;;;;;74.77;40.27;;;8.90;1.00;;;;;;5055291;28;20177;-69
2022/03/25 02:32:00;;;;;;;78.63;39.17;;;8.90;1.00;;;;;;5054970;28;20613;-69
2022/03/25 02:34:26;;;;;;;70.63;39.10;;;8.90;1.00;;;;;;5055418;28;20177;-67
2022/03/25 02:36:51;;;;;;;77.40;40.13;;;8.80;1.00;;;;;;5055344;28;20174;-68
2022/03/25 02:39:18;;;;;;;71.57;40.13;;;8.80;1.00;;;;;;5055339;28;20213;-68
2022/03/25 02:41:44;;;;;;;71.87;40.30;;;8.80;1.00;;;;;;5055271;28;20691;-68
2022/03/25 02:44:10;;;;;;;79.27;40.80;;;8.80;1.00;;;;;;5055028;28;20181;-68
2022/03/25 02:46:37;;;;;;;78.73;41.60;;;8.70;1.00;;;;;;5054750;28;20161;-69
2022/03/25 02:49:03;;;;;;;72.03;41.30;;;8.60;1.00;;;;;;5055160;28;20169;-68
2022/03/25 02:51:29;;;;;;;76.03;40.27;;;8.60;1.00;;;;;;5055213;28;20169;-68
2022/03/25 02:53:56;;;;;;;76.87;41.53;;;8.60;1.00;;;;;;5054759;28;20540;-69
2022/03/25 02:56:22;;;;;;;75.30;42.07;;;8.60;1.00;;;;;;5054855;28;20332;-68
2022/03/25 02:58:47;;;;;;;70.57;42.43;;;8.60;1.00;;;;;;5054746;28;20319;-68
2022/03/25 03:01:13;;;;;;;76.37;42.60;;;8.60;1.00;;;;;;5054631;28;20260;-67
2022/03/25 03:03:40;;;;;;;81.27;43.60;;;8.50;1.00;;;;;;5054641;28;20166;-69
2022/03/25 03:06:07;;;;;;;77.73;42.43;;;8.60;1.00;;;;;;5054907;28;20222;-67
2022/03/25 03:08:35;;;;;;;79.33;43.50;;;8.60;1.00;;;;;;5054838;28;20700;-68
2022/03/25 03:11:01;;;;;;;80.13;41.40;;;8.70;1.00;;;;;;5054705;28;20166;-67
2022/03/25 03:13:27;;;;;;;83.50;43.70;;;8.70;1.00;;;;;;5054188;28;20176;-67
2022/03/25 03:15:53;;;;;;;78.57;42.57;;;8.70;1.00;;;;;;5054366;28;20170;-68
2022/03/25 03:18:20;;;;;;;82.47;43.33;;;8.70;1.00;;;;;;5054553;28;20216;-68
2022/03/25 03:20:46;;;;;;;87.03;44.37;;;8.70;1.00;;;;;;5054214;28;20244;-69
2022/03/25 03:23:12;;;;;;;79.93;42.47;;;8.70;1.00;;;;;;5054454;28;20193;-68
2022/03/25 03:25:37;;;;;;;78.43;42.20;;;8.80;1.00;;;;;;5054315;28;20177;-69
2022/03/25 03:28:04;;;;;;;83.90;44.63;;;8.70;1.00;;;;;;5053905;28;20215;-68
2022/03/25 03:30:30;;;;;;;75.17;43.20;;;8.70;1.00;;;;;;5053532;28;20171;-68
2022/03/25 03:32:57;;;;;;;75.50;43.50;;;8.70;1.00;;;;;;5054190;28;20169;-68
2022/03/25 03:35:25;;;;;;;77.30;43.83;;;8.60;1.00;;;;;;5054246;28;20253;-68
2022/03/25 03:37:51;;;;;;;81.63;43.37;;;8.60;1.00;;;;;;5054147;28;20256;-68
2022/03/25 03:40:17;;;;;;;78.47;43.53;;;8.60;1.00;;;;;;5053930;28;20213;-68
2022/03/25 03:42:43;;;;;;;80.70;42.80;;;8.60;1.00;;;;;;5053564;28;20218;-68
2022/03/25 03:45:10;;;;;;;74.17;41.63;;;8.70;1.00;;;;;;5053995;28;20169;-68
2022/03/25 03:47:36;;;;;;;76.87;42.90;;;8.70;1.00;;;;;;5054008;28;20173;-69
2022/03/25 03:50:08;;;;;;;76.47;42.53;;;8.60;1.00;;;;;;5054088;28;20212;-68
2022/03/25 03:52:35;;;;;;;76.77;43.43;;;8.50;1.00;;;;;;5053948;28;20178;-68
2022/03/25 03:55:03;;;;;;;74.77;42.70;;;8.40;1.00;;;;;;5053455;28;20330;-68
2022/03/25 03:57:29;;;;;;;75.30;43.43;;;8.40;1.00;;;;;;5053104;28;20196;-68
2022/03/25 03:59:55;;;;;;;80.43;44.43;;;8.40;1.00;;;;;;5053865;28;20258;-68
2022/03/25 04:02:22;;;;;;;84.53;45.37;;;8.40;1.00;;;;;;5053745;28;20173;-67
2022/03/25 04:04:47;;;;;;;74.07;43.63;;;8.50;1.00;;;;;;5053863;28;20168;-67
2022/03/25 04:07:13;;;;;;;82.87;44.57;;;8.50;1.00;;;;;;5053416;28;20520;-67
2022/03/25 04:09:39;;;;;;;84.60;44.23;;;8.50;1.00;;;;;;5053503;28;20234;-67
2022/03/25 04:12:06;;;;;;;80.77;45.20;;;8.50;1.00;;;;;;5052855;28;20264;-68
2022/03/25 04:14:31;;;;;;;83.10;43.33;;;8.40;1.00;;;;;;5053439;28;20177;-68
2022/03/25 04:16:57;;;;;;;84.13;44.20;;;8.30;1.00;;;;;;5053198;28;20180;-68
2022/03/25 04:19:22;;;;;;;81.23;45.17;;;8.30;1.00;;;;;;5053124;28;20277;-68
2022/03/25 04:21:48;;;;;;;89.07;44.53;;;8.20;1.00;;;;;;5053308;28;20219;-68
2022/03/25 04:24:14;;;;;;;82.93;45.60;;;8.30;1.00;;;;;;5053312;28;20169;-68
2022/03/25 04:26:39;;;;;;;80.93;43.70;;;8.30;1.00;;;;;;5052525;28;20675;-68
2022/03/25 04:29:06;;;;;;;82.70;45.00;;;8.20;1.00;;;;;;5053292;28;20169;-68
2022/03/25 04:31:32;;;;;;;80.90;44.73;;;8.20;1.00;;;;;;5051947;28;20177;-68
2022/03/25 04:33:57;;;;;;;81.20;45.17;;;8.20;1.00;;;;;;5051004;28;20173;-69
2022/03/25 04:36:23;;;;;;;88.90;45.73;;;8.20;1.00;;;;;;5053251;28;20261;-68
2022/03/25 04:38:49;;;;;;;80.17;44.37;;;8.20;1.00;;;;;;5052773;28;20690;-68
2022/03/25 04:41:14;;;;;;;80.07;44.30;;;8.20;1.00;;;;;;5050780;28;20199;-69
2022/03/25 04:43:40;;;;;;;84.00;45.50;;;8.20;1.00;;;;;;5052705;28;20162;-69
2022/03/25 04:46:08;;;;;;;84.53;45.10;;;8.20;1.00;;;;;;5052836;28;20199;-69
2022/03/25 04:48:34;;;;;;;83.40;44.83;;;8.20;1.00;;;;;;5051345;28;20170;-68
2022/03/25 04:51:00;;;;;;;86.60;45.73;;;8.20;1.00;;;;;;5052795;28;20172;-68
2022/03/25 04:53:26;;;;;;;85.37;45.50;;;8.20;1.00;;;;;;5052331;28;20170;-68
2022/03/25 04:55:52;;;;;;;84.67;44.93;;;8.10;1.00;;;;;;5051600;28;20270;-69
2022/03/25 04:58:18;;;;;;;86.27;45.10;;;8.10;1.00;;;;;;5052614;28;20215;-69
2022/03/25 05:00:44;;;;;;;89.57;45.70;;;8.10;1.00;;;;;;5052839;28;20691;-68
2022/03/25 05:03:09;;;;;;;84.80;44.10;;;8.10;1.00;;;;;;5052632;28;20252;-69
2022/03/25 05:05:35;;;;;;;82.00;45.27;;;8.10;1.00;;;;;;5051275;28;20181;-68
2022/03/25 05:08:01;;;;;;;90.90;45.33;;;8.10;1.00;;;;;;5052559;28;20173;-69
2022/03/25 05:10:27;;;;;;;89.27;44.97;;;8.10;1.00;;;;;;5051661;28;20172;-68
2022/03/25 05:12:53;;;;;;;85.10;46.03;;;8.10;1.00;;;;;;5052145;28;20172;-68
2022/03/25 05:15:19;;;;;;;88.07;46.43;;;8.10;1.00;;;;;;5051078;28;20253;-68
2022/03/25 05:17:46;;;;;;;98.93;46.03;;;8.10;1.00;;;;;;5052557;28;20173;-68
2022/03/25 05:20:13;;;;;;;89.50;46.13;;;8.00;1.00;;;;;;5052394;28;20199;-70
2022/03/25 05:22:39;;;;;;;92.93;45.60;;;8.00;1.00;;;;;;5051073;28;20264;-69
2022/03/25 05:25:07;;;;;;;82.50;45.93;;;7.90;1.00;;;;;;5050595;28;20264;-69
2022/03/25 05:27:46;;;;;;;92.10;46.63;;;7.90;1.00;;;;;;5052169;28;20629;-69
2022/03/25 05:30:13;;;;;;;83.70;46.47;;;7.90;1.00;;;;;;5052308;28;20176;-69
2022/03/25 05:32:39;;;;;;;95.53;48.07;;;7.90;1.00;;;;;;5052179;28;20178;-69
2022/03/25 05:35:06;;;;;;;104.37;46.33;;;7.80;1.00;;;;;;5050600;28;20694;-69
2022/03/25 05:37:34;;;;;;;88.80;48.03;;;7.90;1.00;;;;;;5051738;28;20528;-69
2022/03/25 05:39:59;;;;;;;91.37;46.70;;;7.90;1.00;;;;;;5051305;28;20213;-69
2022/03/25 05:42:25;;;;;;;91.33;46.70;;;7.80;1.00;;;;;;5051958;28;20651;-69
2022/03/25 05:44:51;;;;;;;102.03;49.60;;;7.90;1.00;;;;;;5050494;28;20185;-69
2022/03/25 05:47:17;;;;;;;87.03;46.07;;;7.90;1.00;;;;;;5052180;28;20223;-69
2022/03/25 05:49:43;;;;;;;91.93;47.83;;;8.00;1.00;;;;;;5051680;28;20173;-69
2022/03/25 05:52:08;;;;;;;88.90;48.47;;;8.00;1.00;;;;;;5051397;28;20181;-69
2022/03/25 05:54:34;;;;;;;92.23;46.63;;;8.10;1.00;;;;;;5054633;28;20279;-69
2022/03/25 05:57:00;;;;;;;89.53;47.17;;;8.30;1.00;;;;;;5055517;28;20203;-69
2022/03/25 05:59:25;;;;;;;85.90;45.50;;;8.40;1.00;;;;;;5055343;28;20684;-69
2022/03/25 06:01:51;;;;;;;89.60;45.27;;;8.60;1.00;;;;;;5055085;28;20161;-68
2022/03/25 06:04:16;;;;;;;96.63;46.80;;;8.70;1.00;;;;;;5055645;28;20238;-68
2022/03/25 06:06:42;;;;;;;90.50;46.07;;;9.00;1.00;;;;;;5054996;28;20655;-68
2022/03/25 06:09:08;;;;;;;79.17;44.20;;;9.30;1.00;;;;;;5055048;28;20177;-69
2022/03/25 06:11:33;;;;;;;95.37;45.63;;;9.40;56.50;;;;;;5054555;28;20180;-67
2022/03/25 06:13:59;;;;;;;80.57;43.87;;;9.60;1.00;;;;;;5055006;28;20640;-67
2022/03/25 06:16:25;;;;;;;87.47;44.70;;;10.20;99.90;;;;;;5055491;28;20169;-69
2022/03/25 06:18:52;;;;;;;86.53;44.43;;;10.60;1.00;;;;;;5054486;28;20177;-70
2022/03/25 06:21:20;;;;;;;82.77;44.43;;;10.90;1.00;;;;;;5054620;28;20255;-69
2022/03/25 06:23:45;;;;;;;91.03;43.77;;;11.10;1.00;;;;;;5054010;28;20264;-69
2022/03/25 06:26:11;;;;;;;85.93;44.37;;;11.20;99.90;;;;;;5055121;28;20248;-68
2022/03/25 06:28:37;;;;;;;77.93;43.73;;;11.30;99.90;;;;;;5054731;28;20196;-69
2022/03/25 06:31:03;;;;;;;83.80;43.70;;;11.30;35.70;;;;;;5052972;28;20177;-68
2022/03/25 06:33:28;;;;;;;86.40;42.93;;;11.20;4.20;;;;;;5054523;28;20679;-67
2022/03/25 06:35:54;;;;;;;88.43;43.70;;;11.30;19.70;;;;;;5053780;28;20173;-67
2022/03/25 06:38:20;;;;;;;86.30;43.67;;;11.50;1.00;;;;;;5053769;28;20640;-68
2022/03/25 06:40:45;;;;;;;91.40;43.80;;;11.50;1.00;;;;;;5053091;28;20240;-68
2022/03/25 06:43:11;;;;;;;87.90;44.80;;;11.50;1.00;;;;;;5054305;28;20304;-69
2022/03/25 06:45:36;;;;;;;88.07;42.90;;;12.10;1.00;;;;;;5054480;28;20602;-69
2022/03/25 06:48:02;;;;;;;79.97;42.20;;;12.70;1.00;;;;;;5053253;28;20165;-68
2022/03/25 06:50:28;;;;;;;77.90;42.67;;;13.50;1.00;;;;;;5053529;28;20197;-69
2022/03/25 06:52:57;;;;;;;78.77;42.07;;;14.20;1.00;;;;;;5053732;28;20174;-68
2022/03/25 06:55:23;;;;;;;81.27;42.07;;;14.80;99.90;;;;;;5053085;28;20556;-68
2022/03/25 06:57:50;;;;;;;70.00;40.93;;;15.60;99.90;;;;;;5052508;28;20520;-69
2022/03/25 07:00:17;;;;;;;67.97;40.27;;;15.60;99.90;;;;;;5053527;28;20212;-69
2022/03/25 07:02:44;;;;;;;73.43;41.13;;;15.90;99.90;;;;;;5053255;28;20201;-69
2022/03/25 07:05:11;;;;;;;75.20;41.40;;;16.50;99.90;;;;;;5053389;28;20185;-70
2022/03/25 07:07:37;;;;;;;77.13;37.90;;;16.80;99.90;;;;;;5053284;28;20173;-71
2022/03/25 07:10:05;;;;;;;62.57;37.50;;;16.70;99.90;;;;;;5053690;28;20174;-69
2022/03/25 07:12:31;;;;;;;70.47;37.03;;;16.20;99.90;;;;;;5053132;28;20173;-69
2022/03/25 07:14:56;;;;;;;64.10;37.83;;;16.50;99.90;;;;;;5053837;28;20181;-70
2022/03/25 07:17:22;;;;;;;55.43;35.47;;;16.90;99.90;;;;;;5052908;28;20708;-69
2022/03/25 07:19:48;;;;;;;55.37;34.33;;;16.80;92.80;;;;;;5053041;28;20694;-70
2022/03/25 07:22:14;;;;;;;53.73;36.00;;;15.80;95.80;;;;;;5052616;28;20299;-70
2022/03/25 07:24:39;;;;;;;51.60;34.60;;;15.70;97.20;;;;;;5052252;28;20192;-71
2022/03/25 07:27:05;;;;;;;56.00;36.87;;;16.60;90.00;;;;;;5053293;28;20560;-69
2022/03/25 07:29:30;;;;;;;60.27;35.57;;;17.00;76.80;;;;;;5053502;28;20177;-69
2022/03/25 07:31:56;;;;;;;53.87;34.50;;;16.60;74.70;;;;;;5052459;28;20262;-70
2022/03/25 07:34:22;;;;;;;56.70;35.63;;;17.30;61.50;;;;;;5052894;28;20710;-69
2022/03/25 07:36:47;;;;;;;59.80;36.73;;;17.70;43.50;;;;;;5053010;28;20169;-69
2022/03/25 07:39:13;;;;;;;64.63;36.97;;;17.60;42.80;;;;;;5052529;28;20177;-69
2022/03/25 07:41:38;;;;;;;57.13;36.10;;;17.80;39.40;;;;;;5052612;28;20180;-70
2022/03/25 07:44:05;;;;;;;63.83;36.25;;;18.80;28.60;;;;;;5052768;28;20185;-70
2022/03/25 07:46:30;;;;;;;55.38;35.10;;;20.10;11.20;;;;;;5050810;28;20235;-70
2022/03/25 07:48:56;;;;;;;56.10;36.55;;;18.90;3.40;;;;;;5052859;28;20216;-69
2022/03/25 07:51:21;;;;;;;55.75;35.08;;;18.60;6.70;;;;;;5067624;28;20188;-70
2022/03/25 07:53:47;;;;;;;54.78;35.72;;;19.60;1.00;;;;;;5072899;28;20188;-70
2022/03/25 07:56:13;;;;;;;54.78;35.72;;;20.30;1.00;;;;;;5067416;28;20221;-70
2022/03/25 07:58:38;;;;;;;54.58;36.70;;;21.10;1.00;;;;;;5073481;28;20576;-69
2022/03/25 08:01:04;;;;;;;52.30;35.50;;;21.30;1.00;;;;;;5068918;28;20239;-69
2022/03/25 08:03:31;;;;;;;52.08;37.13;;;21.80;1.00;;;;;;5070388;28;20232;-70
2022/03/25 08:05:57;;;;;;;53.22;36.25;;;21.70;1.00;;;;;;5070320;28;20208;-71
2022/03/25 08:08:22;;;;;;;51.75;35.53;;;21.40;1.00;;;;;;5071766;28;20179;-70
2022/03/25 08:10:54;;;;;;;52.35;36.75;;;20.90;1.00;;;;;;5072228;28;20191;-71
2022/03/25 08:13:20;;;;;;;61.13;37.47;;;21.00;1.00;;;;;;5068625;28;20203;-70
2022/03/25 08:15:45;;;;;;;59.75;37.13;;;21.00;1.00;;;;;;5058049;28;20213;-70
2022/03/25 08:18:11;;;;;;;56.78;37.17;;;21.60;1.00;;;;;;5063936;28;20176;-69
2022/03/25 08:20:40;;;;;;;56.03;37.72;;;21.90;1.00;;;;;;5072319;28;20723;-70
2022/03/25 08:23:10;;;;;;;55.05;38.97;;;22.40;1.00;;;;;;5076261;28;20529;-69
2022/03/25 08:28:20;;;;;;;53.90;37.85;;;23.30;1.00;;;;;;5067321;28;20275;-71
2022/03/25 08:30:46;;;;;;;62.15;41.58;;;23.60;1.00;;;;;;5070994;28;20259;-69
2022/03/25 08:33:13;;;;;;;60.53;40.58;;;23.40;1.00;;;;;;5055635;28;20607;-71
2022/03/25 08:35:40;;;;;;;59.25;40.95;;;22.30;1.00;;;;;;5060760;28;20176;-71
2022/03/25 08:38:07;;;;;;;63.50;40.70;;;22.20;1.00;;;;;;5060155;28;20173;-71
2022/03/25 08:40:34;;;;;;;62.20;43.65;;;22.70;1.00;;;;;;5084697;28;20199;-70
2022/03/25 08:43:02;;;;;;;59.35;41.72;;;23.60;1.00;;;;;;5054083;28;20230;-71
2022/03/25 08:45:28;;;;;;;61.60;42.38;;;23.90;1.00;;;;;;5059351;28;20255;-70
2022/03/25 08:47:54;;;;;;;57.97;44.50;;;22.80;1.00;;;;;;5071941;28;20176;-70
2022/03/25 08:50:22;;;;;;;65.00;43.38;;;21.70;1.00;;;;;;5052915;28;20181;-72
2022/03/25 08:52:49;;;;;;;63.10;44.95;;;21.90;1.00;;;;;;5065294;28;20271;-71
2022/03/25 08:55:16;;;;;;;62.40;43.80;;;21.80;1.00;;;;;;5071286;28;20224;-71
2022/03/25 08:57:42;;;;;;;67.88;47.90;;;22.50;1.00;;;;;;5059083;28;20215;-71
2022/03/25 09:00:14;;;;;;;67.68;49.28;;;22.50;1.00;;;;;;5057692;28;20688;-71
2022/03/25 09:02:42;;;;;;;64.50;47.47;;;21.40;1.00;;;;;;5064436;28;20216;-71
2022/03/25 09:05:08;;;;;;;74.22;48.05;;;21.40;1.00;;;;;;5063637;28;20168;-70
2022/03/25 09:07:34;;;;;;;71.97;48.08;;;20.10;1.00;;;;;;5059588;28;20260;-71
2022/03/25 09:10:00;;;;;;;74.90;48.38;;;20.00;1.00;;;;;;5083299;28;20212;-71
2022/03/25 09:12:26;;;;;;;72.88;47.13;;;21.30;1.00;;;;;;5090902;28;20172;-70
2022/03/25 09:14:51;;;;;;;69.07;49.40;;;22.60;1.00;;;;;;5067902;28;20183;-70
2022/03/25 09:17:17;;;;;;;68.57;48.38;;;23.40;1.00;;;;;;5066747;28;20652;-69
2022/03/25 09:19:43;;;;;;;64.70;47.45;;;23.30;1.00;;;;;;5066181;28;20199;-70
2022/03/25 09:22:10;;;;;;;76.60;53.08;;;22.90;1.00;;;;;;5070171;28;20172;-70
2022/03/25 09:24:35;;;;;;;65.15;46.03;;;23.70;1.00;;;;;;5060568;28;20215;-70
2022/03/25 09:27:02;;;;;;;67.97;46.35;;;23.00;1.00;;;;;;5053019;28;20208;-70
2022/03/25 09:29:27;;;;;;;70.05;46.58;;;22.30;1.00;;;;;;5055130;28;20262;-69
2022/03/25 09:31:53;;;;;;;66.40;44.83;;;22.00;1.00;;;;;;5061874;28;20211;-68
2022/03/25 09:37:03;;;;;;;65.15;40.25;;;21.70;1.00;;;;;;5061747;28;20211;-69
2022/03/25 09:39:29;;;;;;;57.65;39.47;;;20.70;1.00;;;;;;5064096;28;20208;-69
2022/03/25 09:41:54;;;;;;;54.45;39.25;;;21.00;1.00;;;;;;5066058;28;20310;-68
2022/03/25 09:44:21;;;;;;;58.53;39.28;;;20.80;1.00;;;;;;5072099;28;20201;-70
2022/03/25 09:46:49;;;;;;;55.30;36.78;;;20.40;1.00;;;;;;5092951;28;20179;-70
2022/03/25 09:49:15;;;;;;;63.47;39.40;;;20.40;1.00;;;;;;5083328;28;20173;-70
2022/03/25 09:51:41;;;;;;;55.95;38.80;;;20.10;1.00;;;;;;5064876;28;20185;-71
2022/03/25 09:54:11;;;;;;;62.75;39.20;;;20.30;1.00;;;;;;5067721;28;20218;-71
2022/03/25 09:56:37;;;;;;;53.90;39.05;;;20.80;1.00;;;;;;5069706;28;20205;-72
2022/03/25 09:59:03;;;;;;;59.10;38.65;;;21.00;1.00;;;;;;5089711;28;20176;-69
2022/03/25 10:01:29;;;;;;;57.05;38.58;;;22.10;1.00;;;;;;5080063;28;20662;-70
2022/03/25 10:03:54;;;;;;;54.25;38.08;;;23.50;1.00;;;;;;5073538;28;20694;-70
2022/03/25 10:06:20;;;;;;;52.25;36.10;;;24.50;1.00;;;;;;5059905;28;20188;-71
2022/03/25 10:08:57;;;;;;;55.97;37.05;;;24.20;1.00;;;;;;5073249;28;20173;-71
2022/03/25 10:11:27;;;;;;;53.67;35.40;;;21.20;1.00;;;;;;5073092;28;20168;-71
2022/03/25 10:14:23;;;;;;;49.55;34.28;;;21.50;1.00;;;;;;5084411;28;20179;-69
2022/03/25 10:16:53;;;;;;;41.47;29.50;;;22.30;1.00;;;;;;5074196;28;20212;-70
2022/03/25 10:19:19;;;;;;;47.47;32.65;;;20.70;1.00;;;;;;5070480;28;20172;-69
2022/03/25 10:22:00;;;;;;;41.83;28.52;;;20.40;1.00;;;;;;5092612;28;20273;-69
2022/03/25 10:24:47;;;;;;;41.63;28.83;;;20.10;1.00;;;;;;5074953;28;20209;-69
2022/03/25 10:27:17;;;;;;;39.63;26.83;;;19.60;1.00;;;;;;5077368;28;20173;-69
2022/03/25 10:29:47;;;;;;;40.65;26.55;;;19.70;1.00;;;;;;5072532;28;20231;-71
2022/03/25 10:32:15;;;;;;;39.60;28.00;;;21.10;1.00;;;;;;5084590;28;20508;-70
2022/03/25 10:34:42;;;;;;;43.05;27.60;;;20.20;1.00;;;;;;5072191;28;20176;-70
2022/03/25 10:37:14;;;;;;;41.08;26.38;;;20.00;1.00;;;;;;5073798;28;20165;-71
2022/03/25 10:39:51;;;;;;;41.03;27.02;;;20.00;1.00;;;;;;5074011;28;20232;-71
2022/03/25 10:42:17;;;;;;;42.63;26.58;;;20.50;1.00;;;;;;5070950;28;20180;-69
2022/03/25 10:44:43;;;;;;;36.33;26.10;;;19.90;1.00;;;;;;5072235;28;20171;-70
2022/03/25 10:47:29;;;;;;;34.70;23.60;;;20.30;1.00;;;;;;5069566;28;20243;-69
2022/03/25 10:50:12;;;;;;;40.50;27.27;;;20.20;1.00;;;;;;5062331;28;20625;-69
2022/03/25 10:52:38;;;;;;;36.45;24.00;;;20.00;1.00;;;;;;5062184;28;20188;-70
2022/03/25 10:55:22;;;;;;;36.08;22.92;;;20.40;1.00;;;;;;5069056;28;20216;-69
2022/03/25 10:57:58;;;;;;;36.35;23.30;;;20.90;1.00;;;;;;5066589;28;20271;-68
2022/03/25 11:00:26;;;;;;;35.05;21.48;;;20.90;1.00;;;;;;5066980;28;20219;-68
2022/03/25 11:02:53;;;;;;;29.63;21.50;;;21.50;1.00;;;;;;5072792;28;20246;-68
2022/03/25 11:05:20;;;;;;;35.10;22.35;;;20.70;1.00;;;;;;5060072;28;20260;-68
2022/03/25 11:07:47;;;;;;;32.72;22.02;;;20.10;1.00;;;;;;5053793;28;20184;-67
2022/03/25 11:10:14;;;;;;;30.38;19.42;;;19.80;1.00;;;;;;5053497;28;20177;-67
2022/03/25 11:12:48;;;;;;;33.38;19.55;;;20.10;1.00;;;;;;5072611;28;20180;-67
2022/03/25 11:15:19;;;;;;;32.72;19.52;;;20.70;1.00;;;;;;5053820;28;20261;-68
2022/03/25 11:17:45;;;;;;;25.77;17.20;;;20.70;1.00;;;;;;5052247;28;20169;-67
2022/03/25 11:20:13;;;;;;;26.73;18.05;;;21.30;1.00;;;;;;5051844;28;20224;-68
2022/03/25 11:23:08;;;;;;;22.38;16.95;;;20.90;1.00;;;;;;5053655;28;20166;-68
2022/03/25 11:25:42;;;;;;;28.38;18.58;;;20.50;1.00;;;;;;5052173;28;20219;-67
2022/03/25 11:28:12;;;;;;;28.73;19.88;;;20.20;1.00;;;;;;5051883;28;20327;-67
2022/03/25 11:30:38;;;;;;;31.65;19.48;;;19.50;1.00;;;;;;5053970;28;20633;-67
2022/03/25 11:33:06;;;;;;;29.25;19.73;;;19.80;1.00;;;;;;5052853;28;20629;-68
2022/03/25 11:35:55;;;;;;;28.88;20.63;;;19.40;1.00;;;;;;5052945;28;20647;-68
2022/03/25 11:38:22;;;;;;;30.13;19.40;;;20.00;1.00;;;;;;5052819;28;20204;-67
2022/03/25 11:40:49;;;;;;;28.30;19.25;;;21.10;1.00;;;;;;5052618;28;20201;-68
2022/03/25 11:43:25;;;;;;;27.77;17.85;;;21.80;1.00;;;;;;5055548;28;20180;-67
2022/03/25 11:46:00;;;;;;;26.05;17.70;;;21.70;1.00;;;;;;5066330;28;20179;-68
2022/03/25 11:48:26;;;;;;;28.55;19.88;;;22.20;1.00;;;;;;5073247;28;20176;-67
2022/03/25 11:50:55;;;;;;;36.47;20.48;;;21.50;1.00;;;;;;5072128;28;20169;-68
2022/03/25 11:53:23;;;;;;;25.05;18.27;;;22.00;1.00;;;;;;5066770;28;20203;-68
2022/03/25 11:56:12;;;;;;;27.45;18.33;;;21.50;1.00;;;;;;5070644;28;20289;-68
2022/03/25 11:59:01;;;;;;;24.02;15.13;;;20.90;1.00;;;;;;5072259;28;20222;-67
2022/03/25 12:01:29;;;;;;;24.23;17.33;;;21.10;1.00;;;;;;5049188;28;20212;-68
2022/03/25 12:03:56;;;;;;;27.27;17.50;;;21.10;1.00;;;;;;5062724;28;20175;-68
2022/03/25 12:06:27;;;;;;;30.48;17.05;;;20.70;1.00;;;;;;5064748;28;20628;-69
2022/03/25 12:09:05;;;;;;;27.90;17.15;;;21.00;1.00;;;;;;5077132;28;20179;-68
2022/03/25 12:11:50;;;;;;;24.63;15.98;;;19.50;1.00;;;;;;5092333;28;20201;-69
2022/03/25 12:14:21;;;;;;;27.88;18.40;;;19.90;1.00;;;;;;5092118;28;20171;-68
2022/03/25 12:16:49;;;;;;;25.77;17.73;;;20.70;1.00;;;;;;5071018;28;20255;-68
2022/03/25 12:19:26;;;;;;;27.13;17.30;;;20.90;1.00;;;;;;5059392;28;20177;-68
2022/03/25 12:22:04;;;;;;;28.10;18.23;;;20.70;1.00;;;;;;5084358;28;20194;-68
2022/03/25 12:24:31;;;;;;;29.88;19.50;;;20.20;1.00;;;;;;5060395;28;20176;-68
2022/03/25 12:27:05;;;;;;;28.58;18.38;;;19.70;1.00;;;;;;5070390;28;20169;-68
2022/03/25 12:29:33;;;;;;;29.52;18.10;;;19.60;1.00;;;;;;5072207;28;20180;-67
2022/03/25 12:32:01;;;;;;;31.48;19.90;;;19.70;1.00;;;;;;5071400;28;20168;-68
2022/03/25 12:34:40;;;;;;;29.77;18.98;;;19.00;1.00;;;;;;5069503;28;20628;-68
2022/03/25 12:37:10;;;;;;;27.23;18.65;;;18.80;1.00;;;;;;5071502;28;20160;-69
2022/03/25 12:39:35;;;;;;;25.95;18.23;;;18.60;1.00;;;;;;5071576;28;20655;-68
2022/03/25 12:42:11;;;;;;;30.45;18.50;;;18.30;1.00;;;;;;5071855;28;20177;-67
2022/03/25 12:44:36;;;;;;;34.87;19.80;;;18.20;1.00;;;;;;5070058;28;20172;-70